| time (UTC) | temp F | wind direction | speed knots | gust knots | rain 1hr in | rain 24hr in | rain mn in | humidity % | barometer mb |
| 20260906145259 | 72 | 89 | 3.5 | 5.2 | 0.00 | 0.00 | 0.00 | 75 | 1020.4 |
| 20260906144258 | 72 | 70 | 1.7 | 3.5 | 0.00 | 0.00 | 0.00 | 76 | 1020.4 |
| 20260906143306 | 72 | 83 | 3.5 | 6.1 | 0.00 | 0.00 | 0.00 | 76 | 1020.3 |
| 20260906142246 | 72 | 82 | 1.7 | 3.5 | 0.00 | 0.00 | 0.00 | 77 | 1020.4 |
| 20260906141245 | 71 | 92 | 4.3 | 7.0 | 0.00 | 0.00 | 0.00 | 77 | 1020.4 |
| 20260906140245 | 70 | 80 | 3.5 | 4.3 | 0.00 | 0.00 | 0.00 | 79 | 1020.3 |
| 20260906135244 | 70 | 50 | 2.6 | 4.3 | 0.00 | 0.00 | 0.00 | 80 | 1020.3 |
| 20260906134244 | 69 | 0 | 1.7 | 2.6 | 0.00 | 0.00 | 0.00 | 83 | 1020.2 |
| 20260906133244 | 69 | 76 | 1.7 | 2.6 | 0.00 | 0.00 | 0.00 | 85 | 1020.3 |
| 20260906132243 | 69 | 103 | 1.7 | 3.5 | 0.00 | 0.00 | 0.00 | 86 | 1020.2 |
| 20260906131250 | 70 | 84 | 0.9 | 1.7 | 0.00 | 0.00 | 0.00 | 86 | 1020.2 |
| 20260906130242 | 69 | 80 | 0.0 | 0.9 | 0.00 | 0.00 | 0.00 | 92 | 1020.1 |
| 20260906125241 | 68 | 0 | 0.0 | 0.9 | 0.00 | 0.00 | 0.00 | 99 | 1020.0 |
| 20260906124241 | 67 | 0 | 0.0 | 0.9 | 0.00 | 0.00 | 0.00 | 100 | 1019.6 |
| 20260906123240 | 65 | 0 | 0.0 | 0.0 | 0.00 | 0.00 | 0.00 | 100 | 1019.6 |
| 20260906122319 | 63 | 0 | 0.0 | 0.0 | 0.00 | 0.00 | 0.00 | 100 | 1019.5 |
| 20260906122239 | 63 | 0 | 0.0 | 0.0 | 0.00 | 0.00 | 0.00 | 100 | 1019.5 |
| 20260906121239 | 61 | 293 | 0.0 | 0.9 | 0.00 | 0.00 | 0.00 | 100 | 1019.5 |
| 20260906120239 | 59 | 61 | 0.0 | 0.0 | 0.00 | 0.00 | 0.00 | 100 | 1019.2 |
| 20260906115239 | 58 | 0 | 0.0 | 0.9 | 0.00 | 0.00 | 0.00 | 100 | 1019.3 |
| 20260906114237 | 58 | 0 | 0.0 | 0.0 | 0.00 | 0.00 | 0.00 | 100 | 1019.2 |
| 20260906113237 | 58 | 0 | 0.0 | 0.9 | 0.00 | 0.00 | 0.00 | 100 | 1018.9 |
| 20260906112236 | 58 | 0 | 0.0 | 0.0 | 0.00 | 0.00 | 0.00 | 100 | 1018.8 |
| 20260906111236 | 58 | 0 | 0.0 | 0.0 | 0.00 | 0.00 | 0.00 | 100 | 1018.7 |
| 20260906110235 | 59 | 0 | 0.0 | 0.9 | 0.00 | 0.00 | 0.00 | 100 | 1018.6 |
| 20260906105317 | 59 | 0 | 0.0 | 0.0 | 0.00 | 0.00 | 0.00 | 100 | 1018.7 |
| 20260906105235 | 59 | 0 | 0.0 | 0.0 | 0.00 | 0.00 | 0.00 | 100 | 1018.7 |
| 20260906104235 | 59 | 0 | 0.0 | 0.0 | 0.00 | 0.00 | 0.00 | 100 | 1018.6 |
| 20260906103234 | 59 | 0 | 0.0 | 0.0 | 0.00 | 0.00 | 0.00 | 100 | 1018.6 |
| 20260906102335 | 59 | 0 | 0.0 | 0.0 | 0.00 | 0.00 | 0.00 | 100 | 1018.7 |
| 20260906102233 | 59 | 0 | 0.0 | 0.0 | 0.00 | 0.00 | 0.00 | 100 | 1018.7 |
| 20260906101309 | 60 | 0 | 0.0 | 0.0 | 0.00 | 0.00 | 0.00 | 100 | 1018.6 |
| 20260906101233 | 60 | 0 | 0.0 | 0.0 | 0.00 | 0.00 | 0.00 | 100 | 1018.6 |
| 20260906100232 | 60 | 0 | 0.0 | 0.0 | 0.00 | 0.00 | 0.00 | 100 | 1018.5 |
| 20260906095347 | 60 | 0 | 0.0 | 0.9 | 0.00 | 0.00 | 0.00 | 100 | 1018.4 |
| 20260906095231 | 60 | 0 | 0.0 | 0.9 | 0.00 | 0.00 | 0.00 | 100 | 1018.4 |
| 20260906094231 | 60 | 0 | 0.0 | 0.0 | 0.00 | 0.00 | 0.00 | 100 | 1018.4 |
| 20260906093313 | 60 | 0 | 0.0 | 0.0 | 0.00 | 0.00 | 0.00 | 100 | 1018.4 |
| 20260906093231 | 60 | 0 | 0.0 | 0.0 | 0.00 | 0.00 | 0.00 | 100 | 1018.4 |
| 20260906092329 | 59 | 0 | 0.0 | 0.9 | 0.00 | 0.00 | 0.00 | 100 | 1018.3 |
| 20260906092230 | 59 | 0 | 0.0 | 0.9 | 0.00 | 0.00 | 0.00 | 100 | 1018.3 |
| 20260906091230 | 59 | 0 | 0.0 | 0.0 | 0.00 | 0.00 | 0.00 | 100 | 1018.4 |
| 20260906090411 | 59 | 0 | 0.0 | 0.0 | 0.00 | 0.00 | 0.00 | 100 | 1018.2 |
| 20260906090229 | 59 | 0 | 0.0 | 0.0 | 0.00 | 0.00 | 0.00 | 100 | 1018.2 |
| 20260906085411 | 60 | 0 | 0.0 | 0.0 | 0.00 | 0.00 | 0.00 | 100 | 1018.2 |
| 20260906085229 | 60 | 0 | 0.0 | 0.0 | 0.00 | 0.00 | 0.00 | 100 | 1018.2 |
| 20260906084229 | 60 | 0 | 0.0 | 0.0 | 0.00 | 0.00 | 0.00 | 100 | 1018.3 |
| 20260906083301 | 60 | 0 | 0.0 | 0.0 | 0.00 | 0.00 | 0.00 | 100 | 1018.3 |
| 20260906083228 | 60 | 0 | 0.0 | 0.0 | 0.00 | 0.00 | 0.00 | 100 | 1018.3 |
| 20260906082227 | 61 | 0 | 0.0 | 0.0 | 0.00 | 0.00 | 0.00 | 100 | 1018.4 |
| 20260906081226 | 61 | 0 | 0.0 | 0.0 | 0.00 | 0.00 | 0.00 | 100 | 1018.2 |
| 20260906080258 | 61 | 0 | 0.0 | 0.0 | 0.00 | 0.00 | 0.00 | 100 | 1018.2 |
| 20260906080226 | 61 | 0 | 0.0 | 0.0 | 0.00 | 0.00 | 0.00 | 100 | 1018.2 |
| 20260906075324 | 61 | 0 | 0.0 | 0.0 | 0.00 | 0.00 | 0.00 | 100 | 1018.1 |
| 20260906075225 | 61 | 0 | 0.0 | 0.0 | 0.00 | 0.00 | 0.00 | 100 | 1018.1 |
| 20260906074225 | 60 | 0 | 0.0 | 0.0 | 0.00 | 0.00 | 0.00 | 100 | 1018.2 |
| 20260906073225 | 60 | 0 | 0.0 | 0.0 | 0.00 | 0.00 | 0.00 | 100 | 1018.1 |
| 20260906072224 | 60 | 0 | 0.0 | 0.0 | 0.00 | 0.00 | 0.00 | 100 | 1017.8 |
| 20260906071312 | 60 | 0 | 0.0 | 0.0 | 0.00 | 0.00 | 0.00 | 100 | 1017.8 |
| 20260906071224 | 60 | 0 | 0.0 | 0.0 | 0.00 | 0.00 | 0.00 | 100 | 1017.8 |
| 20260906070223 | 61 | 0 | 0.0 | 0.9 | 0.00 | 0.00 | 0.00 | 100 | 1017.9 |
| 20260906065329 | 61 | 0 | 0.0 | 0.0 | 0.00 | 0.00 | 0.00 | 100 | 1017.9 |
| 20260906065222 | 61 | 0 | 0.0 | 0.0 | 0.00 | 0.00 | 0.00 | 100 | 1017.9 |
| 20260906064222 | 61 | 0 | 0.0 | 0.9 | 0.00 | 0.00 | 0.00 | 100 | 1018.0 |
| 20260906063257 | 61 | 0 | 0.0 | 0.9 | 0.00 | 0.00 | 0.00 | 100 | 1018.0 |
| 20260906062221 | 61 | 0 | 0.0 | 0.0 | 0.00 | 0.00 | 0.00 | 100 | 1018.0 |
| 20260906061221 | 60 | 0 | 0.0 | 1.7 | 0.00 | 0.00 | 0.00 | 100 | 1018.0 |
| 20260906060219 | 61 | 0 | 0.0 | 0.0 | 0.00 | 0.00 | 0.00 | 100 | 1017.8 |
| 20260906055219 | 61 | 0 | 0.0 | 0.9 | 0.00 | 0.00 | 0.00 | 100 | 1017.6 |
| 20260906054243 | 61 | 0 | 0.0 | 0.9 | 0.00 | 0.00 | 0.00 | 100 | 1017.7 |
| 20260906053218 | 61 | 0 | 0.0 | 0.0 | 0.00 | 0.00 | 0.00 | 100 | 1017.7 |
| 20260906052318 | 61 | 0 | 0.0 | 0.0 | 0.00 | 0.00 | 0.00 | 100 | 1017.7 |
| 20260906052218 | 61 | 0 | 0.0 | 0.0 | 0.00 | 0.00 | 0.00 | 100 | 1017.7 |
| 20260906051217 | 61 | 0 | 0.0 | 0.0 | 0.00 | 0.00 | 0.00 | 100 | 1017.7 |
| 20260906050308 | 61 | 0 | 0.0 | 0.0 | 0.00 | 0.00 | 0.00 | 100 | 1017.7 |
| 20260906050217 | 61 | 0 | 0.0 | 0.0 | 0.00 | 0.00 | 0.00 | 100 | 1017.7 |
| 20260906045247 | 61 | 0 | 0.0 | 0.0 | 0.00 | 0.00 | 0.00 | 100 | 1017.6 |
| 20260906045216 | 61 | 0 | 0.0 | 0.0 | 0.00 | 0.00 | 0.00 | 100 | 1017.6 |
| 20260906044215 | 61 | 0 | 0.0 | 0.0 | 0.00 | 0.00 | 0.00 | 100 | 1017.7 |
| 20260906043247 | 61 | 0 | 0.0 | 0.0 | 0.00 | 0.00 | 0.00 | 99 | 1017.6 |
| 20260906043215 | 61 | 0 | 0.0 | 0.0 | 0.00 | 0.00 | 0.00 | 99 | 1017.6 |
| 20260906042214 | 61 | 0 | 0.0 | 0.9 | 0.00 | 0.00 | 0.00 | 99 | 1017.5 |
| 20260906041214 | 61 | 0 | 0.0 | 0.0 | 0.00 | 0.00 | 0.00 | 99 | 1017.4 |
| 20260906040247 | 61 | 0 | 0.0 | 0.0 | 0.00 | 0.00 | 0.00 | 99 | 1017.3 |
| 20260906040213 | 61 | 0 | 0.0 | 0.0 | 0.00 | 0.00 | 0.00 | 99 | 1017.3 |
| 20260906035250 | 62 | 0 | 0.0 | 0.0 | 0.00 | 0.00 | 0.00 | 99 | 1017.3 |
| 20260906035213 | 62 | 0 | 0.0 | 0.0 | 0.00 | 0.00 | 0.00 | 99 | 1017.3 |
| 20260906034213 | 62 | 0 | 0.0 | 0.9 | 0.00 | 0.00 | 0.00 | 99 | 1017.4 |
| 20260906033212 | 62 | 0 | 0.0 | 0.9 | 0.00 | 0.00 | 0.00 | 99 | 1017.4 |
| 20260906032247 | 62 | 80 | 0.0 | 0.9 | 0.00 | 0.00 | 0.00 | 99 | 1017.4 |
| 20260906032211 | 62 | 80 | 0.0 | 0.9 | 0.00 | 0.00 | 0.00 | 99 | 1017.4 |
| 20260906031400 | 62 | 81 | 0.0 | 1.7 | 0.00 | 0.00 | 0.00 | 99 | 1017.4 |
| 20260906031251 | 62 | 81 | 0.0 | 1.7 | 0.00 | 0.00 | 0.00 | 99 | 1017.4 |
| 20260906031211 | 62 | 81 | 0.0 | 1.7 | 0.00 | 0.00 | 0.00 | 99 | 1017.4 |
| 20260906030212 | 62 | 87 | 0.0 | 0.9 | 0.00 | 0.00 | 0.00 | 99 | 1017.5 |
| 20260906025210 | 62 | 0 | 0.0 | 0.9 | 0.00 | 0.00 | 0.00 | 99 | 1017.5 |
| 20260906024224 | 62 | 0 | 0.0 | 0.0 | 0.00 | 0.00 | 0.00 | 99 | 1017.4 |
| 20260906023245 | 62 | 0 | 0.0 | 0.9 | 0.00 | 0.00 | 0.00 | 99 | 1017.4 |
| 20260906023209 | 62 | 0 | 0.0 | 0.9 | 0.00 | 0.00 | 0.00 | 99 | 1017.4 |
| 20260906022209 | 62 | 65 | 0.9 | 1.7 | 0.00 | 0.00 | 0.00 | 99 | 1017.3 |
| 20260906021312 | 62 | 0 | 0.0 | 0.0 | 0.00 | 0.00 | 0.00 | 98 | 1017.3 |
| 20260906021208 | 62 | 0 | 0.0 | 0.0 | 0.00 | 0.00 | 0.00 | 98 | 1017.3 |
| 20260906020207 | 62 | 0 | 0.0 | 0.0 | 0.00 | 0.00 | 0.00 | 98 | 1017.3 |
| 20260906015206 | 62 | 0 | 0.0 | 0.0 | 0.00 | 0.00 | 0.00 | 98 | 1017.2 |
| 20260906014206 | 63 | 0 | 0.0 | 0.0 | 0.00 | 0.00 | 0.00 | 97 | 1017.0 |
| 20260906013206 | 63 | 0 | 0.0 | 0.0 | 0.00 | 0.00 | 0.00 | 97 | 1017.0 |
| 20260906012205 | 64 | 0 | 0.0 | 0.0 | 0.00 | 0.00 | 0.00 | 96 | 1016.9 |
| 20260906011247 | 64 | 0 | 0.0 | 0.0 | 0.00 | 0.00 | 0.00 | 95 | 1017.0 |
| 20260906011206 | 64 | 0 | 0.0 | 0.0 | 0.00 | 0.00 | 0.00 | 95 | 1017.0 |
| 20260906010238 | 65 | 0 | 0.0 | 0.0 | 0.00 | 0.00 | 0.00 | 94 | 1016.9 |
| 20260906010207 | 65 | 0 | 0.0 | 0.0 | 0.00 | 0.00 | 0.00 | 94 | 1016.9 |
| 20260906005204 | 66 | 0 | 0.0 | 0.0 | 0.00 | 0.00 | 0.00 | 92 | 1017.0 |
| 20260906004203 | 67 | 0 | 0.0 | 0.0 | 0.00 | 0.00 | 0.00 | 91 | 1017.0 |
| 20260906003202 | 67 | 0 | 0.0 | 0.0 | 0.00 | 0.00 | 0.00 | 89 | 1017.1 |
| 20260906001248 | 69 | 79 | 0.0 | 0.9 | 0.00 | 0.00 | 0.00 | 85 | 1017.1 |
| 20260906001201 | 69 | 79 | 0.0 | 0.9 | 0.00 | 0.00 | 0.00 | 85 | 1017.1 |
| 20260906000201 | 69 | 64 | 2.6 | 5.2 | 0.00 | 0.00 | 0.00 | 85 | 1017.1 |
| 20260905235250 | 70 | 60 | 1.7 | 2.6 | 0.00 | 0.00 | 0.00 | 89 | 1017.2 |
| 20260905235200 | 70 | 60 | 1.7 | 2.6 | 0.00 | 0.00 | 0.00 | 89 | 1017.2 |
| 20260905234250 | 70 | 97 | 0.0 | 0.0 | 0.00 | 0.00 | 0.00 | 90 | 1017.2 |
| 20260905234200 | 70 | 97 | 0.0 | 0.0 | 0.00 | 0.00 | 0.00 | 90 | 1017.2 |
| 20260905233159 | 70 | 0 | 0.9 | 1.7 | 0.00 | 0.00 | 0.00 | 89 | 1017.0 |
| 20260905232255 | 70 | 61 | 0.9 | 1.7 | 0.00 | 0.00 | 0.00 | 90 | 1017.0 |
| 20260905231247 | 70 | 0 | 0.0 | 0.9 | 0.00 | 0.00 | 0.00 | 90 | 1017.0 |
| 20260905231158 | 70 | 0 | 0.0 | 0.9 | 0.00 | 0.00 | 0.00 | 90 | 1017.0 |
| 20260905230242 | 70 | 63 | 0.9 | 1.7 | 0.00 | 0.00 | 0.00 | 90 | 1017.1 |
| 20260905230158 | 70 | 63 | 0.9 | 1.7 | 0.00 | 0.00 | 0.00 | 90 | 1017.1 |
| 20260905225356 | 70 | 29 | 1.7 | 2.6 | 0.00 | 0.00 | 0.00 | 90 | 1017.0 |
| 20260905225157 | 70 | 29 | 1.7 | 2.6 | 0.00 | 0.00 | 0.00 | 90 | 1017.0 |
| 20260905224245 | 70 | 96 | 0.9 | 1.7 | 0.00 | 0.00 | 0.00 | 91 | 1016.8 |
| 20260905224156 | 70 | 96 | 0.9 | 1.7 | 0.00 | 0.00 | 0.00 | 91 | 1016.8 |
| 20260905223156 | 70 | 60 | 2.6 | 5.2 | 0.00 | 0.00 | 0.00 | 91 | 1016.8 |
| 20260905222227 | 70 | 56 | 1.7 | 2.6 | 0.00 | 0.00 | 0.00 | 92 | 1016.8 |
| 20260905221247 | 70 | 0 | 1.7 | 2.6 | 0.00 | 0.00 | 0.00 | 92 | 1016.8 |
| 20260905221155 | 70 | 0 | 1.7 | 2.6 | 0.00 | 0.00 | 0.00 | 92 | 1016.8 |
| 20260905220234 | 70 | 63 | 1.7 | 2.6 | 0.00 | 0.00 | 0.00 | 93 | 1016.8 |
| 20260905220154 | 70 | 63 | 1.7 | 2.6 | 0.00 | 0.00 | 0.00 | 93 | 1016.8 |
| 20260905215351 | 70 | 61 | 1.7 | 2.6 | 0.00 | 0.00 | 0.00 | 92 | 1016.6 |
| 20260905215154 | 70 | 61 | 1.7 | 2.6 | 0.00 | 0.00 | 0.00 | 92 | 1016.6 |
| 20260905214243 | 70 | 122 | 1.7 | 3.5 | 0.00 | 0.00 | 0.00 | 92 | 1016.5 |
| 20260905214154 | 70 | 122 | 1.7 | 3.5 | 0.00 | 0.00 | 0.00 | 92 | 1016.5 |
| 20260905213154 | 70 | 78 | 2.6 | 4.3 | 0.00 | 0.00 | 0.00 | 92 | 1016.6 |
| 20260905212247 | 70 | 51 | 2.6 | 4.3 | 0.00 | 0.00 | 0.00 | 92 | 1016.7 |
| 20260905212152 | 70 | 51 | 2.6 | 4.3 | 0.00 | 0.00 | 0.00 | 92 | 1016.7 |
| 20260905211225 | 70 | 61 | 2.6 | 4.3 | 0.00 | 0.00 | 0.00 | 92 | 1016.7 |
| 20260905211152 | 70 | 61 | 2.6 | 4.3 | 0.00 | 0.00 | 0.00 | 92 | 1016.7 |
| 20260905210244 | 70 | 69 | 2.6 | 3.5 | 0.00 | 0.00 | 0.00 | 93 | 1016.7 |
| 20260905210151 | 70 | 69 | 2.6 | 3.5 | 0.00 | 0.00 | 0.00 | 93 | 1016.7 |
| 20260905205224 | 70 | 93 | 2.6 | 4.3 | 0.00 | 0.00 | 0.00 | 92 | 1016.7 |
| 20260905205151 | 70 | 93 | 2.6 | 4.3 | 0.00 | 0.00 | 0.00 | 92 | 1016.7 |
| 20260905204239 | 70 | 63 | 1.7 | 3.5 | 0.00 | 0.00 | 0.00 | 92 | 1016.6 |
| 20260905204151 | 70 | 63 | 1.7 | 3.5 | 0.00 | 0.00 | 0.00 | 92 | 1016.6 |
| 20260905203226 | 71 | 62 | 1.7 | 3.5 | 0.00 | 0.00 | 0.00 | 91 | 1016.4 |
| 20260905203150 | 71 | 62 | 1.7 | 3.5 | 0.00 | 0.00 | 0.00 | 91 | 1016.4 |
| 20260905202349 | 71 | 66 | 2.6 | 2.6 | 0.00 | 0.00 | 0.00 | 91 | 1016.6 |
| 20260905202149 | 71 | 66 | 2.6 | 2.6 | 0.00 | 0.00 | 0.00 | 91 | 1016.6 |
| 20260905201247 | 71 | 103 | 1.7 | 4.3 | 0.00 | 0.00 | 0.00 | 90 | 1016.5 |
| 20260905201149 | 71 | 103 | 1.7 | 4.3 | 0.00 | 0.00 | 0.00 | 90 | 1016.5 |
| 20260905200225 | 72 | 51 | 2.6 | 4.3 | 0.00 | 0.00 | 0.00 | 90 | 1016.4 |
| 20260905200148 | 72 | 51 | 2.6 | 4.3 | 0.00 | 0.00 | 0.00 | 90 | 1016.4 |
| 20260905195247 | 72 | 65 | 2.6 | 5.2 | 0.00 | 0.00 | 0.00 | 90 | 1016.5 |
| 20260905195148 | 72 | 65 | 2.6 | 5.2 | 0.00 | 0.00 | 0.00 | 90 | 1016.5 |
| 20260905194233 | 72 | 67 | 1.7 | 2.6 | 0.00 | 0.00 | 0.00 | 90 | 1016.5 |
| 20260905194147 | 72 | 67 | 1.7 | 2.6 | 0.00 | 0.00 | 0.00 | 90 | 1016.5 |
| 20260905193222 | 72 | 71 | 0.9 | 2.6 | 0.00 | 0.00 | 0.00 | 90 | 1016.6 |
| 20260905193148 | 72 | 71 | 0.9 | 2.6 | 0.00 | 0.00 | 0.00 | 90 | 1016.6 |
| 20260905192221 | 72 | 49 | 2.6 | 4.3 | 0.00 | 0.00 | 0.00 | 90 | 1016.6 |
| 20260905192146 | 72 | 49 | 2.6 | 4.3 | 0.00 | 0.00 | 0.00 | 90 | 1016.6 |
| 20260905191146 | 72 | 80 | 2.6 | 3.5 | 0.00 | 0.00 | 0.00 | 90 | 1016.5 |
| 20260905190237 | 71 | 65 | 0.9 | 2.6 | 0.00 | 0.00 | 0.00 | 91 | 1016.5 |
| 20260905190145 | 71 | 65 | 0.9 | 2.6 | 0.00 | 0.00 | 0.00 | 91 | 1016.5 |
| 20260905185217 | 71 | 63 | 3.5 | 5.2 | 0.00 | 0.00 | 0.00 | 91 | 1016.6 |
| 20260905185146 | 71 | 63 | 3.5 | 5.2 | 0.00 | 0.00 | 0.00 | 91 | 1016.6 |
| 20260905184225 | 72 | 60 | 2.6 | 3.5 | 0.00 | 0.00 | 0.00 | 90 | 1016.6 |
| 20260905184144 | 72 | 60 | 2.6 | 3.5 | 0.00 | 0.00 | 0.00 | 90 | 1016.6 |
| 20260905183225 | 72 | 93 | 1.7 | 3.5 | 0.00 | 0.00 | 0.00 | 90 | 1016.6 |
| 20260905183144 | 72 | 93 | 1.7 | 3.5 | 0.00 | 0.00 | 0.00 | 90 | 1016.6 |
| 20260905182246 | 72 | 70 | 2.6 | 3.5 | 0.00 | 0.00 | 0.00 | 89 | 1016.6 |
| 20260905182143 | 72 | 70 | 2.6 | 3.5 | 0.00 | 0.00 | 0.00 | 89 | 1016.6 |
| 20260905181142 | 72 | 58 | 2.6 | 4.3 | 0.00 | 0.00 | 0.00 | 90 | 1016.6 |
| 20260905180328 | 73 | 60 | 2.6 | 3.5 | 0.00 | 0.00 | 0.00 | 90 | 1016.5 |
| 20260905180142 | 73 | 60 | 2.6 | 3.5 | 0.00 | 0.00 | 0.00 | 90 | 1016.5 |
| 20260905175142 | 73 | 88 | 3.5 | 5.2 | 0.00 | 0.00 | 0.00 | 89 | 1016.5 |
| 20260905174337 | 73 | 72 | 3.5 | 3.5 | 0.00 | 0.00 | 0.00 | 91 | 1016.4 |
| 20260905174141 | 73 | 72 | 3.5 | 3.5 | 0.00 | 0.00 | 0.00 | 91 | 1016.4 |
| 20260905173141 | 74 | 72 | 1.7 | 3.5 | 0.00 | 0.00 | 0.00 | 89 | 1016.3 |
| 20260905173052 | 74 | 72 | 1.7 | 3.5 | 0.00 | 0.00 | 0.00 | 89 | 1016.3 |
| 20260905172107 | 75 | 59 | 1.7 | 3.5 | 0.00 | 0.00 | 0.00 | 86 | 1016.3 |
| 20260905171136 | 75 | 85 | 2.6 | 5.2 | 0.00 | 0.00 | 0.00 | 87 | 1016.3 |
| 20260905171051 | 75 | 85 | 2.6 | 5.2 | 0.00 | 0.00 | 0.00 | 87 | 1016.3 |
| 20260905170150 | 75 | 50 | 0.9 | 1.7 | 0.00 | 0.00 | 0.00 | 86 | 1016.3 |
| 20260905170051 | 75 | 50 | 0.9 | 1.7 | 0.00 | 0.00 | 0.00 | 86 | 1016.3 |
| 20260905165139 | 75 | 55 | 0.9 | 2.6 | 0.00 | 0.00 | 0.00 | 86 | 1016.3 |
| 20260905165052 | 75 | 55 | 0.9 | 2.6 | 0.00 | 0.00 | 0.00 | 86 | 1016.3 |
| 20260905164050 | 75 | 0 | 0.9 | 2.6 | 0.00 | 0.00 | 0.00 | 86 | 1016.3 |
| 20260905163209 | 75 | 135 | 0.0 | 2.6 | 0.00 | 0.00 | 0.00 | 85 | 1016.3 |
| 20260905163049 | 75 | 135 | 0.0 | 2.6 | 0.00 | 0.00 | 0.00 | 85 | 1016.3 |
| 20260905162112 | 75 | 255 | 1.7 | 4.3 | 0.00 | 0.00 | 0.00 | 85 | 1016.3 |
| 20260905161135 | 75 | 54 | 0.9 | 1.7 | 0.00 | 0.00 | 0.00 | 87 | 1016.4 |
| 20260905161048 | 75 | 54 | 0.9 | 1.7 | 0.00 | 0.00 | 0.00 | 87 | 1016.4 |
| 20260905160143 | 75 | 99 | 0.9 | 1.7 | 0.00 | 0.00 | 0.00 | 87 | 1016.3 |
| 20260905160048 | 75 | 99 | 0.9 | 1.7 | 0.00 | 0.00 | 0.00 | 87 | 1016.3 |
| 20260905155136 | 74 | 101 | 0.9 | 1.7 | 0.00 | 0.00 | 0.00 | 87 | 1016.2 |
| 20260905155047 | 74 | 101 | 0.9 | 1.7 | 0.00 | 0.00 | 0.00 | 87 | 1016.2 |
| 20260905154152 | 74 | 66 | 0.9 | 2.6 | 0.00 | 0.00 | 0.00 | 89 | 1016.1 |
| 20260905154047 | 74 | 66 | 0.9 | 2.6 | 0.00 | 0.00 | 0.00 | 89 | 1016.1 |
| 20260905153046 | 73 | 0 | 0.9 | 2.6 | 0.00 | 0.00 | 0.00 | 91 | 1016.2 |
| 20260905152148 | 73 | 59 | 2.6 | 4.3 | 0.00 | 0.00 | 0.00 | 91 | 1016.0 |
| 20260905152046 | 73 | 59 | 2.6 | 4.3 | 0.00 | 0.00 | 0.00 | 91 | 1016.0 |
| 20260905151218 | 73 | 96 | 1.7 | 3.5 | 0.00 | 0.01 | 0.00 | 91 | 1016.0 |
| 20260905151045 | 73 | 96 | 1.7 | 3.5 | 0.00 | 0.01 | 0.00 | 91 | 1016.0 |
| 20260905150154 | 72 | 86 | 0.9 | 2.6 | 0.00 | 0.01 | 0.00 | 92 | 1016.0 |
| 20260905150044 | 72 | 86 | 0.9 | 2.6 | 0.00 | 0.01 | 0.00 | 92 | 1016.0 |